sensor_id;sensor_type;location;lat;lon;timestamp;P1;durP1;ratioP1;P2;durP2;ratioP2
56770;SDS011;42641;59.794;17.616;2022-08-18T00:01:07;15.50;;;13.93;;
56770;SDS011;42641;59.794;17.616;2022-08-18T00:03:38;14.52;;;13.02;;
56770;SDS011;42641;59.794;17.616;2022-08-18T00:06:06;15.18;;;13.70;;
56770;SDS011;42641;59.794;17.616;2022-08-18T00:08:33;15.18;;;13.45;;
56770;SDS011;42641;59.794;17.616;2022-08-18T00:10:59;16.30;;;14.70;;
56770;SDS011;42641;59.794;17.616;2022-08-18T00:13:26;16.75;;;15.13;;
56770;SDS011;42641;59.794;17.616;2022-08-18T00:15:52;15.88;;;14.38;;
56770;SDS011;42641;59.794;17.616;2022-08-18T00:18:23;17.20;;;15.40;;
56770;SDS011;42641;59.794;17.616;2022-08-18T00:20:50;16.73;;;15.13;;
56770;SDS011;42641;59.794;17.616;2022-08-18T00:23:16;17.65;;;15.82;;
56770;SDS011;42641;59.794;17.616;2022-08-18T00:25:43;15.52;;;14.02;;
56770;SDS011;42641;59.794;17.616;2022-08-18T00:28:10;18.48;;;15.95;;
56770;SDS011;42641;59.794;17.616;2022-08-18T00:30:38;18.88;;;16.65;;
56770;SDS011;42641;59.794;17.616;2022-08-18T00:33:05;15.60;;;14.07;;
56770;SDS011;42641;59.794;17.616;2022-08-18T00:35:33;15.00;;;13.60;;
56770;SDS011;42641;59.794;17.616;2022-08-18T00:38:02;13.90;;;12.55;;
56770;SDS011;42641;59.794;17.616;2022-08-18T00:40:32;15.18;;;13.57;;
56770;SDS011;42641;59.794;17.616;2022-08-18T00:43:11;15.93;;;13.90;;
56770;SDS011;42641;59.794;17.616;2022-08-18T00:45:42;17.08;;;15.25;;
56770;SDS011;42641;59.794;17.616;2022-08-18T00:48:10;16.67;;;15.00;;
56770;SDS011;42641;59.794;17.616;2022-08-18T00:50:51;14.60;;;13.18;;
56770;SDS011;42641;59.794;17.616;2022-08-18T00:53:22;14.70;;;13.20;;
56770;SDS011;42641;59.794;17.616;2022-08-18T00:55:54;13.57;;;12.35;;
56770;SDS011;42641;59.794;17.616;2022-08-18T00:58:28;15.85;;;14.30;;
56770;SDS011;42641;59.794;17.616;2022-08-18T01:01:01;14.43;;;12.95;;
56770;SDS011;42641;59.794;17.616;2022-08-18T01:03:30;14.32;;;13.00;;
56770;SDS011;42641;59.794;17.616;2022-08-18T01:06:00;13.98;;;12.77;;
56770;SDS011;42641;59.794;17.616;2022-08-18T01:08:31;14.07;;;12.68;;
56770;SDS011;42641;59.794;17.616;2022-08-18T01:10:58;14.75;;;13.45;;
56770;SDS011;42641;59.794;17.616;2022-08-18T01:13:28;14.90;;;13.38;;
56770;SDS011;42641;59.794;17.616;2022-08-18T01:15:57;14.80;;;13.40;;
56770;SDS011;42641;59.794;17.616;2022-08-18T01:18:44;15.75;;;12.70;;
56770;SDS011;42641;59.794;17.616;2022-08-18T01:21:29;13.48;;;12.23;;
56770;SDS011;42641;59.794;17.616;2022-08-18T01:24:18;13.52;;;12.13;;
56770;SDS011;42641;59.794;17.616;2022-08-18T01:27:08;18.17;;;13.52;;
56770;SDS011;42641;59.794;17.616;2022-08-18T01:29:35;15.07;;;13.07;;
56770;SDS011;42641;59.794;17.616;2022-08-18T01:32:02;13.70;;;12.30;;
56770;SDS011;42641;59.794;17.616;2022-08-18T01:34:28;11.90;;;10.90;;
56770;SDS011;42641;59.794;17.616;2022-08-18T01:36:55;23.65;;;14.90;;
56770;SDS011;42641;59.794;17.616;2022-08-18T01:39:22;16.13;;;12.73;;
56770;SDS011;42641;59.794;17.616;2022-08-18T01:41:49;15.32;;;13.73;;
56770;SDS011;42641;59.794;17.616;2022-08-18T01:44:15;13.35;;;12.05;;
56770;SDS011;42641;59.794;17.616;2022-08-18T01:46:42;14.20;;;12.73;;
56770;SDS011;42641;59.794;17.616;2022-08-18T01:49:08;16.25;;;13.60;;
56770;SDS011;42641;59.794;17.616;2022-08-18T01:51:35;14.10;;;12.75;;
56770;SDS011;42641;59.794;17.616;2022-08-18T01:54:06;12.68;;;11.40;;
56770;SDS011;42641;59.794;17.616;2022-08-18T01:56:35;14.05;;;12.68;;
56770;SDS011;42641;59.794;17.616;2022-08-18T01:59:02;15.25;;;13.75;;
56770;SDS011;42641;59.794;17.616;2022-08-18T02:01:30;14.02;;;11.20;;
56770;SDS011;42641;59.794;17.616;2022-08-18T02:03:57;13.55;;;11.95;;
56770;SDS011;42641;59.794;17.616;2022-08-18T02:06:24;12.13;;;10.95;;
56770;SDS011;42641;59.794;17.616;2022-08-18T02:08:51;13.27;;;11.80;;
56770;SDS011;42641;59.794;17.616;2022-08-18T02:11:17;14.00;;;12.70;;
56770;SDS011;42641;59.794;17.616;2022-08-18T02:13:43;12.75;;;11.55;;
56770;SDS011;42641;59.794;17.616;2022-08-18T02:16:10;12.38;;;11.15;;
56770;SDS011;42641;59.794;17.616;2022-08-18T02:18:36;16.20;;;12.13;;
56770;SDS011;42641;59.794;17.616;2022-08-18T02:21:10;12.90;;;10.98;;
56770;SDS011;42641;59.794;17.616;2022-08-18T02:23:39;15.40;;;13.57;;
56770;SDS011;42641;59.794;17.616;2022-08-18T02:26:09;15.13;;;13.75;;
56770;SDS011;42641;59.794;17.616;2022-08-18T02:28:40;14.68;;;12.80;;
56770;SDS011;42641;59.794;17.616;2022-08-18T02:31:18;16.77;;;14.50;;
56770;SDS011;42641;59.794;17.616;2022-08-18T02:33:46;14.20;;;12.80;;
56770;SDS011;42641;59.794;17.616;2022-08-18T02:36:13;13.13;;;11.93;;
56770;SDS011;42641;59.794;17.616;2022-08-18T02:38:40;23.77;;;15.68;;
56770;SDS011;42641;59.794;17.616;2022-08-18T02:41:08;18.70;;;14.02;;
56770;SDS011;42641;59.794;17.616;2022-08-18T02:43:36;22.75;;;16.55;;
56770;SDS011;42641;59.794;17.616;2022-08-18T02:46:04;16.10;;;12.40;;
56770;SDS011;42641;59.794;17.616;2022-08-18T02:48:31;16.90;;;13.82;;
56770;SDS011;42641;59.794;17.616;2022-08-18T02:51:06;29.83;;;15.27;;
56770;SDS011;42641;59.794;17.616;2022-08-18T02:53:38;15.27;;;12.80;;
56770;SDS011;42641;59.794;17.616;2022-08-18T02:56:14;20.13;;;14.65;;
56770;SDS011;42641;59.794;17.616;2022-08-18T02:58:50;19.73;;;13.95;;
56770;SDS011;42641;59.794;17.616;2022-08-18T03:01:22;17.98;;;13.95;;
56770;SDS011;42641;59.794;17.616;2022-08-18T03:03:51;19.90;;;16.50;;
56770;SDS011;42641;59.794;17.616;2022-08-18T03:06:19;26.13;;;16.53;;
56770;SDS011;42641;59.794;17.616;2022-08-18T03:08:46;14.90;;;13.40;;
56770;SDS011;42641;59.794;17.616;2022-08-18T03:11:15;15.13;;;13.35;;
56770;SDS011;42641;59.794;17.616;2022-08-18T03:13:42;14.83;;;13.23;;
56770;SDS011;42641;59.794;17.616;2022-08-18T03:16:09;14.30;;;12.50;;
56770;SDS011;42641;59.794;17.616;2022-08-18T03:18:35;16.63;;;14.90;;
56770;SDS011;42641;59.794;17.616;2022-08-18T03:21:09;14.68;;;13.23;;
56770;SDS011;42641;59.794;17.616;2022-08-18T03:23:37;16.83;;;15.15;;
56770;SDS011;42641;59.794;17.616;2022-08-18T03:26:07;12.35;;;11.25;;
56770;SDS011;42641;59.794;17.616;2022-08-18T03:28:39;14.50;;;13.10;;
56770;SDS011;42641;59.794;17.616;2022-08-18T03:31:07;18.00;;;13.70;;
56770;SDS011;42641;59.794;17.616;2022-08-18T03:33:34;14.17;;;12.77;;
56770;SDS011;42641;59.794;17.616;2022-08-18T03:36:05;13.95;;;12.65;;
56770;SDS011;42641;59.794;17.616;2022-08-18T03:39:03;14.65;;;13.00;;
56770;SDS011;42641;59.794;17.616;2022-08-18T03:41:32;16.02;;;14.32;;
56770;SDS011;42641;59.794;17.616;2022-08-18T03:44:00;15.15;;;13.55;;
56770;SDS011;42641;59.794;17.616;2022-08-18T03:46:28;16.23;;;13.60;;
56770;SDS011;42641;59.794;17.616;2022-08-18T03:48:55;14.43;;;12.95;;
56770;SDS011;42641;59.794;17.616;2022-08-18T03:51:24;15.00;;;13.50;;
56770;SDS011;42641;59.794;17.616;2022-08-18T03:53:53;17.65;;;14.73;;
56770;SDS011;42641;59.794;17.616;2022-08-18T03:56:24;16.00;;;14.48;;
56770;SDS011;42641;59.794;17.616;2022-08-18T03:58:57;16.42;;;14.35;;
56770;SDS011;42641;59.794;17.616;2022-08-18T04:01:27;16.60;;;14.98;;
56770;SDS011;42641;59.794;17.616;2022-08-18T04:03:59;15.23;;;13.73;;
56770;SDS011;42641;59.794;17.616;2022-08-18T04:06:31;20.73;;;16.40;;
56770;SDS011;42641;59.794;17.616;2022-08-18T04:09:02;17.83;;;16.03;;
56770;SDS011;42641;59.794;17.616;2022-08-18T04:11:30;19.10;;;16.87;;
56770;SDS011;42641;59.794;17.616;2022-08-18T04:13:58;16.80;;;14.98;;
56770;SDS011;42641;59.794;17.616;2022-08-18T04:16:25;16.35;;;14.75;;
56770;SDS011;42641;59.794;17.616;2022-08-18T04:18:54;16.37;;;14.77;;
56770;SDS011;42641;59.794;17.616;2022-08-18T04:21:28;18.93;;;14.73;;
56770;SDS011;42641;59.794;17.616;2022-08-18T04:23:59;16.45;;;14.85;;
56770;SDS011;42641;59.794;17.616;2022-08-18T04:26:31;15.55;;;13.73;;
56770;SDS011;42641;59.794;17.616;2022-08-18T04:28:58;16.65;;;14.77;;
56770;SDS011;42641;59.794;17.616;2022-08-18T04:31:28;16.10;;;13.88;;
56770;SDS011;42641;59.794;17.616;2022-08-18T04:33:56;15.43;;;13.82;;
56770;SDS011;42641;59.794;17.616;2022-08-18T04:36:23;15.20;;;13.80;;
56770;SDS011;42641;59.794;17.616;2022-08-18T04:38:51;15.82;;;14.15;;
56770;SDS011;42641;59.794;17.616;2022-08-18T04:41:18;19.10;;;14.40;;
56770;SDS011;42641;59.794;17.616;2022-08-18T04:43:59;17.80;;;16.15;;
56770;SDS011;42641;59.794;17.616;2022-08-18T04:46:28;17.65;;;15.85;;
56770;SDS011;42641;59.794;17.616;2022-08-18T04:48:56;18.70;;;16.70;;
56770;SDS011;42641;59.794;17.616;2022-08-18T04:51:24;17.75;;;16.02;;
56770;SDS011;42641;59.794;17.616;2022-08-18T04:53:52;17.85;;;15.95;;
56770;SDS011;42641;59.794;17.616;2022-08-18T04:56:23;17.67;;;15.88;;
56770;SDS011;42641;59.794;17.616;2022-08-18T04:58:55;17.42;;;15.63;;
56770;SDS011;42641;59.794;17.616;2022-08-18T05:01:26;19.05;;;16.52;;
56770;SDS011;42641;59.794;17.616;2022-08-18T05:03:55;18.13;;;16.27;;
56770;SDS011;42641;59.794;17.616;2022-08-18T05:06:24;18.35;;;16.52;;
56770;SDS011;42641;59.794;17.616;2022-08-18T05:08:52;18.30;;;16.40;;
56770;SDS011;42641;59.794;17.616;2022-08-18T05:11:21;16.70;;;15.05;;
56770;SDS011;42641;59.794;17.616;2022-08-18T05:13:49;15.85;;;14.32;;
56770;SDS011;42641;59.794;17.616;2022-08-18T05:16:19;15.88;;;14.18;;
56770;SDS011;42641;59.794;17.616;2022-08-18T05:18:45;14.68;;;13.27;;
56770;SDS011;42641;59.794;17.616;2022-08-18T05:21:13;13.75;;;12.35;;
56770;SDS011;42641;59.794;17.616;2022-08-18T05:23:41;13.30;;;11.90;;
56770;SDS011;42641;59.794;17.616;2022-08-18T05:26:09;13.15;;;11.95;;
56770;SDS011;42641;59.794;17.616;2022-08-18T05:28:39;14.05;;;12.65;;
56770;SDS011;42641;59.794;17.616;2022-08-18T05:31:07;12.95;;;11.75;;
56770;SDS011;42641;59.794;17.616;2022-08-18T05:33:40;12.20;;;10.95;;
56770;SDS011;42641;59.794;17.616;2022-08-18T05:39:05;12.00;;;10.90;;
56770;SDS011;42641;59.794;17.616;2022-08-18T05:41:37;12.38;;;11.05;;
56770;SDS011;42641;59.794;17.616;2022-08-18T05:44:06;12.60;;;11.30;;
56770;SDS011;42641;59.794;17.616;2022-08-18T05:46:45;13.40;;;11.32;;
56770;SDS011;42641;59.794;17.616;2022-08-18T05:49:19;13.15;;;11.65;;
56770;SDS011;42641;59.794;17.616;2022-08-18T05:51:54;15.23;;;13.55;;
56770;SDS011;42641;59.794;17.616;2022-08-18T05:54:24;12.35;;;11.15;;
56770;SDS011;42641;59.794;17.616;2022-08-18T05:57:15;16.85;;;12.25;;
56770;SDS011;42641;59.794;17.616;2022-08-18T05:59:44;18.15;;;13.73;;
56770;SDS011;42641;59.794;17.616;2022-08-18T06:07:11;18.80;;;14.80;;
56770;SDS011;42641;59.794;17.616;2022-08-18T06:09:43;19.17;;;14.45;;
56770;SDS011;42641;59.794;17.616;2022-08-18T06:12:18;15.45;;;13.68;;
56770;SDS011;42641;59.794;17.616;2022-08-18T06:15:11;18.17;;;14.80;;
56770;SDS011;42641;59.794;17.616;2022-08-18T06:25:58;14.75;;;13.05;;
56770;SDS011;42641;59.794;17.616;2022-08-18T06:28:42;16.85;;;14.38;;
56770;SDS011;42641;59.794;17.616;2022-08-18T06:34:04;14.73;;;13.13;;
56770;SDS011;42641;59.794;17.616;2022-08-18T06:36:48;16.00;;;13.15;;
56770;SDS011;42641;59.794;17.616;2022-08-18T06:41:49;15.35;;;12.27;;
56770;SDS011;42641;59.794;17.616;2022-08-18T06:47:36;12.00;;;10.50;;
56770;SDS011;42641;59.794;17.616;2022-08-18T06:52:52;14.70;;;10.93;;
56770;SDS011;42641;59.794;17.616;2022-08-18T06:55:35;13.48;;;11.75;;
56770;SDS011;42641;59.794;17.616;2022-08-18T06:58:19;12.50;;;11.25;;
56770;SDS011;42641;59.794;17.616;2022-08-18T07:00:59;10.30;;;9.30;;
56770;SDS011;42641;59.794;17.616;2022-08-18T07:06:03;11.15;;;10.00;;
56770;SDS011;42641;59.794;17.616;2022-08-18T07:08:36;10.45;;;9.35;;
56770;SDS011;42641;59.794;17.616;2022-08-18T07:11:22;10.45;;;9.30;;
56770;SDS011;42641;59.794;17.616;2022-08-18T07:13:52;10.30;;;9.20;;
56770;SDS011;42641;59.794;17.616;2022-08-18T07:18:49;9.20;;;8.25;;
56770;SDS011;42641;59.794;17.616;2022-08-18T07:21:27;9.95;;;8.60;;
56770;SDS011;42641;59.794;17.616;2022-08-18T07:24:00;9.70;;;8.55;;
56770;SDS011;42641;59.794;17.616;2022-08-18T07:26:31;9.98;;;8.82;;
56770;SDS011;42641;59.794;17.616;2022-08-18T07:29:25;10.55;;;8.57;;
56770;SDS011;42641;59.794;17.616;2022-08-18T07:31:53;9.20;;;8.35;;
56770;SDS011;42641;59.794;17.616;2022-08-18T07:34:22;8.77;;;7.70;;
56770;SDS011;42641;59.794;17.616;2022-08-18T07:37:33;8.82;;;7.35;;
56770;SDS011;42641;59.794;17.616;2022-08-18T07:40:37;8.07;;;6.88;;
56770;SDS011;42641;59.794;17.616;2022-08-18T07:50:52;8.07;;;6.85;;
56770;SDS011;42641;59.794;17.616;2022-08-18T07:56:29;10.68;;;7.65;;
56770;SDS011;42641;59.794;17.616;2022-08-18T08:20:55;7.10;;;6.50;;
56770;SDS011;42641;59.794;17.616;2022-08-18T08:33:56;7.35;;;5.95;;
56770;SDS011;42641;59.794;17.616;2022-08-18T08:36:30;6.35;;;5.85;;
56770;SDS011;42641;59.794;17.616;2022-08-18T08:39:03;6.30;;;5.60;;
56770;SDS011;42641;59.794;17.616;2022-08-18T08:46:54;8.07;;;5.85;;
56770;SDS011;42641;59.794;17.616;2022-08-18T08:49:53;6.25;;;5.75;;
56770;SDS011;42641;59.794;17.616;2022-08-18T08:52:41;6.88;;;5.88;;
56770;SDS011;42641;59.794;17.616;2022-08-18T08:55:16;6.43;;;5.80;;
56770;SDS011;42641;59.794;17.616;2022-08-18T09:00:22;6.45;;;4.88;;
56770;SDS011;42641;59.794;17.616;2022-08-18T09:03:32;5.78;;;5.20;;
56770;SDS011;42641;59.794;17.616;2022-08-18T09:05:58;6.13;;;5.00;;
56770;SDS011;42641;59.794;17.616;2022-08-18T09:08:44;5.53;;;5.13;;
56770;SDS011;42641;59.794;17.616;2022-08-18T09:16:51;4.88;;;4.40;;
56770;SDS011;42641;59.794;17.616;2022-08-18T09:24:46;6.25;;;5.65;;
56770;SDS011;42641;59.794;17.616;2022-08-18T09:30:00;5.45;;;4.35;;
56770;SDS011;42641;59.794;17.616;2022-08-18T09:40:45;4.90;;;4.50;;
56770;SDS011;42641;59.794;17.616;2022-08-18T09:43:37;5.95;;;4.90;;
56770;SDS011;42641;59.794;17.616;2022-08-18T09:46:48;5.65;;;5.20;;
56770;SDS011;42641;59.794;17.616;2022-08-18T09:51:50;5.10;;;4.68;;
56770;SDS011;42641;59.794;17.616;2022-08-18T09:54:19;5.15;;;4.57;;
56770;SDS011;42641;59.794;17.616;2022-08-18T09:56:57;5.30;;;4.63;;
56770;SDS011;42641;59.794;17.616;2022-08-18T10:01:57;4.60;;;4.20;;
56770;SDS011;42641;59.794;17.616;2022-08-18T10:04:26;6.43;;;4.57;;
56770;SDS011;42641;59.794;17.616;2022-08-18T10:07:12;7.15;;;4.50;;
56770;SDS011;42641;59.794;17.616;2022-08-18T10:12:28;5.55;;;4.30;;
56770;SDS011;42641;59.794;17.616;2022-08-18T10:28:59;5.82;;;4.35;;
56770;SDS011;42641;59.794;17.616;2022-08-18T10:31:29;4.93;;;4.40;;
56770;SDS011;42641;59.794;17.616;2022-08-18T10:39:46;4.50;;;4.10;;
56770;SDS011;42641;59.794;17.616;2022-08-18T10:42:21;6.10;;;4.40;;
56770;SDS011;42641;59.794;17.616;2022-08-18T10:47:43;5.15;;;4.28;;
56770;SDS011;42641;59.794;17.616;2022-08-18T10:50:49;5.55;;;5.00;;
56770;SDS011;42641;59.794;17.616;2022-08-18T10:53:23;5.55;;;4.78;;
56770;SDS011;42641;59.794;17.616;2022-08-18T10:56:04;4.88;;;4.05;;
56770;SDS011;42641;59.794;17.616;2022-08-18T10:59:17;4.80;;;4.40;;
56770;SDS011;42641;59.794;17.616;2022-08-18T11:01:57;5.90;;;4.50;;
56770;SDS011;42641;59.794;17.616;2022-08-18T11:04:46;5.30;;;4.57;;
56770;SDS011;42641;59.794;17.616;2022-08-18T11:07:37;6.78;;;4.38;;
56770;SDS011;42641;59.794;17.616;2022-08-18T11:10:15;5.28;;;4.28;;
56770;SDS011;42641;59.794;17.616;2022-08-18T11:15:23;5.18;;;4.78;;
56770;SDS011;42641;59.794;17.616;2022-08-18T11:20:45;7.68;;;4.43;;
56770;SDS011;42641;59.794;17.616;2022-08-18T11:23:13;5.97;;;4.72;;
56770;SDS011;42641;59.794;17.616;2022-08-18T11:25:41;4.75;;;4.35;;
56770;SDS011;42641;59.794;17.616;2022-08-18T11:28:20;5.05;;;4.57;;
56770;SDS011;42641;59.794;17.616;2022-08-18T11:30:52;6.65;;;4.25;;
56770;SDS011;42641;59.794;17.616;2022-08-18T11:33:22;4.72;;;4.32;;
56770;SDS011;42641;59.794;17.616;2022-08-18T11:35:53;5.68;;;4.65;;
56770;SDS011;42641;59.794;17.616;2022-08-18T11:38:26;5.63;;;4.43;;
56770;SDS011;42641;59.794;17.616;2022-08-18T11:40:54;5.28;;;4.55;;
56770;SDS011;42641;59.794;17.616;2022-08-18T11:43:38;5.03;;;4.53;;
56770;SDS011;42641;59.794;17.616;2022-08-18T11:48:47;5.35;;;4.85;;
56770;SDS011;42641;59.794;17.616;2022-08-18T12:04:22;5.97;;;4.13;;
56770;SDS011;42641;59.794;17.616;2022-08-18T12:07:08;4.65;;;4.22;;
56770;SDS011;42641;59.794;17.616;2022-08-18T12:09:48;5.30;;;4.35;;
56770;SDS011;42641;59.794;17.616;2022-08-18T12:12:50;4.88;;;4.47;;
56770;SDS011;42641;59.794;17.616;2022-08-18T12:17:45;5.63;;;4.47;;
56770;SDS011;42641;59.794;17.616;2022-08-18T12:20:13;6.60;;;4.28;;
56770;SDS011;42641;59.794;17.616;2022-08-18T12:22:42;9.05;;;4.78;;
56770;SDS011;42641;59.794;17.616;2022-08-18T12:25:11;5.18;;;4.50;;
56770;SDS011;42641;59.794;17.616;2022-08-18T12:27:40;6.38;;;4.28;;
56770;SDS011;42641;59.794;17.616;2022-08-18T12:30:07;5.05;;;4.53;;
56770;SDS011;42641;59.794;17.616;2022-08-18T12:32:35;7.68;;;4.45;;
56770;SDS011;42641;59.794;17.616;2022-08-18T12:35:03;4.68;;;4.28;;
56770;SDS011;42641;59.794;17.616;2022-08-18T12:37:31;4.88;;;4.45;;
56770;SDS011;42641;59.794;17.616;2022-08-18T12:39:58;5.45;;;4.47;;
56770;SDS011;42641;59.794;17.616;2022-08-18T12:42:25;14.52;;;5.25;;
56770;SDS011;42641;59.794;17.616;2022-08-18T12:44:51;7.38;;;4.40;;
56770;SDS011;42641;59.794;17.616;2022-08-18T12:47:20;7.72;;;5.05;;
56770;SDS011;42641;59.794;17.616;2022-08-18T12:49:49;4.93;;;4.53;;
56770;SDS011;42641;59.794;17.616;2022-08-18T12:52:16;5.65;;;4.45;;
56770;SDS011;42641;59.794;17.616;2022-08-18T12:54:42;4.90;;;4.40;;
56770;SDS011;42641;59.794;17.616;2022-08-18T12:57:22;4.88;;;4.47;;
56770;SDS011;42641;59.794;17.616;2022-08-18T12:59:51;5.38;;;4.88;;
56770;SDS011;42641;59.794;17.616;2022-08-18T13:02:19;4.70;;;4.28;;
56770;SDS011;42641;59.794;17.616;2022-08-18T13:04:46;11.82;;;4.75;;
56770;SDS011;42641;59.794;17.616;2022-08-18T13:07:13;5.95;;;4.85;;
56770;SDS011;42641;59.794;17.616;2022-08-18T13:09:41;5.10;;;4.70;;
56770;SDS011;42641;59.794;17.616;2022-08-18T13:12:08;5.45;;;4.60;;
56770;SDS011;42641;59.794;17.616;2022-08-18T13:14:35;6.32;;;4.53;;
56770;SDS011;42641;59.794;17.616;2022-08-18T13:17:02;5.20;;;4.70;;
56770;SDS011;42641;59.794;17.616;2022-08-18T13:19:28;5.35;;;4.85;;
56770;SDS011;42641;59.794;17.616;2022-08-18T13:21:55;8.80;;;5.03;;
56770;SDS011;42641;59.794;17.616;2022-08-18T13:24:21;5.10;;;4.60;;
56770;SDS011;42641;59.794;17.616;2022-08-18T13:26:48;5.32;;;4.82;;
56770;SDS011;42641;59.794;17.616;2022-08-18T13:29:14;5.43;;;4.88;;
56770;SDS011;42641;59.794;17.616;2022-08-18T13:31:42;5.82;;;4.95;;
56770;SDS011;42641;59.794;17.616;2022-08-18T13:34:10;6.78;;;5.13;;
56770;SDS011;42641;59.794;17.616;2022-08-18T13:36:38;5.50;;;4.85;;
56770;SDS011;42641;59.794;17.616;2022-08-18T13:39:11;5.57;;;5.07;;
56770;SDS011;42641;59.794;17.616;2022-08-18T13:41:40;5.72;;;4.80;;
56770;SDS011;42641;59.794;17.616;2022-08-18T13:44:07;5.80;;;5.30;;
56770;SDS011;42641;59.794;17.616;2022-08-18T13:46:35;5.25;;;4.75;;
56770;SDS011;42641;59.794;17.616;2022-08-18T13:51:40;6.95;;;5.10;;
56770;SDS011;42641;59.794;17.616;2022-08-18T13:54:08;5.60;;;5.10;;
56770;SDS011;42641;59.794;17.616;2022-08-18T13:56:39;5.97;;;5.38;;
56770;SDS011;42641;59.794;17.616;2022-08-18T13:59:05;5.43;;;5.03;;
56770;SDS011;42641;59.794;17.616;2022-08-18T14:01:32;6.22;;;5.45;;
56770;SDS011;42641;59.794;17.616;2022-08-18T14:04:00;6.30;;;5.55;;
56770;SDS011;42641;59.794;17.616;2022-08-18T14:06:26;8.63;;;5.50;;
56770;SDS011;42641;59.794;17.616;2022-08-18T14:08:53;6.38;;;5.57;;
56770;SDS011;42641;59.794;17.616;2022-08-18T14:11:21;6.60;;;5.22;;
56770;SDS011;42641;59.794;17.616;2022-08-18T14:13:52;5.72;;;5.03;;
56770;SDS011;42641;59.794;17.616;2022-08-18T14:16:19;6.13;;;5.30;;
56770;SDS011;42641;59.794;17.616;2022-08-18T14:22:59;5.47;;;4.97;;
56770;SDS011;42641;59.794;17.616;2022-08-18T14:25:45;6.32;;;5.72;;
56770;SDS011;42641;59.794;17.616;2022-08-18T14:28:31;7.97;;;5.15;;
56770;SDS011;42641;59.794;17.616;2022-08-18T14:31:00;7.28;;;5.65;;
56770;SDS011;42641;59.794;17.616;2022-08-18T14:33:27;6.10;;;5.60;;
56770;SDS011;42641;59.794;17.616;2022-08-18T14:35:55;5.97;;;5.45;;
56770;SDS011;42641;59.794;17.616;2022-08-18T14:38:22;12.35;;;5.40;;
56770;SDS011;42641;59.794;17.616;2022-08-18T14:40:49;6.10;;;5.57;;
56770;SDS011;42641;59.794;17.616;2022-08-18T14:43:17;7.00;;;5.05;;
56770;SDS011;42641;59.794;17.616;2022-08-18T14:45:46;5.57;;;5.00;;
56770;SDS011;42641;59.794;17.616;2022-08-18T14:48:17;5.68;;;5.18;;
56770;SDS011;42641;59.794;17.616;2022-08-18T14:50:47;6.05;;;4.97;;
56770;SDS011;42641;59.794;17.616;2022-08-18T14:53:17;5.85;;;5.03;;
56770;SDS011;42641;59.794;17.616;2022-08-18T14:55:45;6.82;;;5.57;;
56770;SDS011;42641;59.794;17.616;2022-08-18T14:58:14;5.50;;;5.10;;
56770;SDS011;42641;59.794;17.616;2022-08-18T15:00:41;5.18;;;4.78;;
56770;SDS011;42641;59.794;17.616;2022-08-18T15:03:07;5.68;;;5.18;;
56770;SDS011;42641;59.794;17.616;2022-08-18T15:05:34;5.40;;;4.93;;
56770;SDS011;42641;59.794;17.616;2022-08-18T15:08:01;5.70;;;4.60;;
56770;SDS011;42641;59.794;17.616;2022-08-18T15:10:31;5.63;;;5.20;;
56770;SDS011;42641;59.794;17.616;2022-08-18T15:12:57;5.70;;;5.10;;
56770;SDS011;42641;59.794;17.616;2022-08-18T15:15:25;5.60;;;5.10;;
56770;SDS011;42641;59.794;17.616;2022-08-18T15:17:52;5.47;;;4.90;;
56770;SDS011;42641;59.794;17.616;2022-08-18T15:20:20;5.75;;;5.18;;
56770;SDS011;42641;59.794;17.616;2022-08-18T15:22:48;6.97;;;5.22;;
56770;SDS011;42641;59.794;17.616;2022-08-18T15:25:33;5.25;;;4.85;;
56770;SDS011;42641;59.794;17.616;2022-08-18T15:28:13;5.65;;;4.97;;
56770;SDS011;42641;59.794;17.616;2022-08-18T15:30:45;6.53;;;5.13;;
56770;SDS011;42641;59.794;17.616;2022-08-18T15:33:14;5.53;;;5.03;;
56770;SDS011;42641;59.794;17.616;2022-08-18T15:35:41;5.32;;;4.93;;
56770;SDS011;42641;59.794;17.616;2022-08-18T15:38:10;5.70;;;5.20;;
56770;SDS011;42641;59.794;17.616;2022-08-18T15:40:47;7.50;;;4.95;;
56770;SDS011;42641;59.794;17.616;2022-08-18T15:43:15;7.15;;;5.20;;
56770;SDS011;42641;59.794;17.616;2022-08-18T15:45:43;6.32;;;5.05;;
56770;SDS011;42641;59.794;17.616;2022-08-18T15:48:13;6.55;;;5.30;;
56770;SDS011;42641;59.794;17.616;2022-08-18T15:50:40;6.03;;;5.22;;
56770;SDS011;42641;59.794;17.616;2022-08-18T15:53:09;5.68;;;5.20;;
56770;SDS011;42641;59.794;17.616;2022-08-18T15:55:37;5.90;;;5.30;;
56770;SDS011;42641;59.794;17.616;2022-08-18T15:58:05;5.50;;;5.00;;
56770;SDS011;42641;59.794;17.616;2022-08-18T16:00:32;5.75;;;4.93;;
56770;SDS011;42641;59.794;17.616;2022-08-18T16:03:00;6.20;;;5.45;;
56770;SDS011;42641;59.794;17.616;2022-08-18T16:05:31;5.75;;;5.25;;
56770;SDS011;42641;59.794;17.616;2022-08-18T16:08:03;6.22;;;5.07;;
56770;SDS011;42641;59.794;17.616;2022-08-18T16:10:32;6.00;;;5.47;;
56770;SDS011;42641;59.794;17.616;2022-08-18T16:12:59;5.65;;;5.15;;
56770;SDS011;42641;59.794;17.616;2022-08-18T16:15:29;6.70;;;5.18;;
56770;SDS011;42641;59.794;17.616;2022-08-18T16:17:59;6.07;;;5.47;;
56770;SDS011;42641;59.794;17.616;2022-08-18T16:20:26;5.80;;;5.28;;
56770;SDS011;42641;59.794;17.616;2022-08-18T16:22:54;5.82;;;5.32;;
56770;SDS011;42641;59.794;17.616;2022-08-18T16:25:22;5.80;;;5.22;;
56770;SDS011;42641;59.794;17.616;2022-08-18T16:27:49;6.07;;;5.47;;
56770;SDS011;42641;59.794;17.616;2022-08-18T16:30:17;6.03;;;5.43;;
56770;SDS011;42641;59.794;17.616;2022-08-18T16:32:46;6.05;;;5.32;;
56770;SDS011;42641;59.794;17.616;2022-08-18T16:35:13;6.22;;;5.45;;
56770;SDS011;42641;59.794;17.616;2022-08-18T16:37:40;6.35;;;5.75;;
56770;SDS011;42641;59.794;17.616;2022-08-18T16:40:06;5.85;;;5.35;;
56770;SDS011;42641;59.794;17.616;2022-08-18T16:42:33;6.38;;;5.78;;
56770;SDS011;42641;59.794;17.616;2022-08-18T16:45:00;5.88;;;5.38;;
56770;SDS011;42641;59.794;17.616;2022-08-18T16:47:30;6.38;;;5.82;;
56770;SDS011;42641;59.794;17.616;2022-08-18T16:49:58;7.78;;;6.05;;
56770;SDS011;42641;59.794;17.616;2022-08-18T16:52:25;6.63;;;6.03;;
56770;SDS011;42641;59.794;17.616;2022-08-18T16:54:51;6.75;;;5.85;;
56770;SDS011;42641;59.794;17.616;2022-08-18T16:57:18;6.57;;;5.97;;
56770;SDS011;42641;59.794;17.616;2022-08-18T17:00:05;6.53;;;5.88;;
56770;SDS011;42641;59.794;17.616;2022-08-18T17:02:50;7.82;;;6.25;;
56770;SDS011;42641;59.794;17.616;2022-08-18T17:05:35;7.05;;;6.05;;
56770;SDS011;42641;59.794;17.616;2022-08-18T17:08:01;6.72;;;6.05;;
56770;SDS011;42641;59.794;17.616;2022-08-18T17:10:29;6.43;;;5.60;;
56770;SDS011;42641;59.794;17.616;2022-08-18T17:13:03;7.05;;;5.97;;
56770;SDS011;42641;59.794;17.616;2022-08-18T17:15:30;8.23;;;6.70;;
56770;SDS011;42641;59.794;17.616;2022-08-18T17:17:57;6.65;;;6.05;;
56770;SDS011;42641;59.794;17.616;2022-08-18T17:20:23;6.80;;;6.10;;
56770;SDS011;42641;59.794;17.616;2022-08-18T17:22:50;7.90;;;6.28;;
56770;SDS011;42641;59.794;17.616;2022-08-18T17:25:17;6.72;;;6.07;;
56770;SDS011;42641;59.794;17.616;2022-08-18T17:27:47;6.43;;;5.82;;
56770;SDS011;42641;59.794;17.616;2022-08-18T17:30:15;8.02;;;6.20;;
56770;SDS011;42641;59.794;17.616;2022-08-18T17:32:52;6.82;;;6.22;;
56770;SDS011;42641;59.794;17.616;2022-08-18T17:35:32;6.63;;;6.03;;